createdAt,value
2018-10-06T00:00:30.992Z,100854.23
2018-10-06T00:01:08.957Z,100853.15
2018-10-06T00:01:46.896Z,100857.45
2018-10-06T00:02:24.683Z,100865.26
2018-10-06T00:03:02.475Z,100864.99
2018-10-06T00:03:40.216Z,100866.88
2018-10-06T00:04:18.021Z,100871.19
2018-10-06T00:04:55.940Z,100871.45
2018-10-06T00:05:33.723Z,100874.69
2018-10-06T00:06:11.705Z,100876.02
2018-10-06T00:06:49.615Z,100878.97
2018-10-06T00:07:29.577Z,100874.39
2018-10-06T00:08:07.408Z,100879.23
2018-10-06T00:08:46.098Z,100875.47
2018-10-06T00:09:23.908Z,100874.41
2018-10-06T00:10:01.687Z,100873.84
2018-10-06T00:10:39.787Z,100880.30
2018-10-06T00:11:18.289Z,100877.33
2018-10-06T00:11:56.163Z,100875.19
2018-10-06T00:12:34.029Z,100874.63
2018-10-06T00:13:11.884Z,100876.50
2018-10-06T00:13:49.772Z,100872.47
2018-10-06T00:14:27.671Z,100870.30
2018-10-06T00:15:05.514Z,100871.64
2018-10-06T00:15:43.342Z,100872.45
2018-10-06T00:16:21.462Z,100872.98
2018-10-06T00:16:59.390Z,100872.47
2018-10-06T00:17:37.395Z,100877.02
2018-10-06T00:18:15.519Z,100877.81
2018-10-06T00:18:53.504Z,100881.03
2018-10-06T00:19:31.333Z,100882.66
2018-10-06T00:20:10.158Z,100878.87
2018-10-06T00:20:48.293Z,100878.87
2018-10-06T00:21:26.274Z,100880.20
2018-10-06T00:22:04.170Z,100882.09
2018-10-06T00:22:41.952Z,100879.39
2018-10-06T00:23:20.575Z,100881.00
2018-10-06T00:23:58.425Z,100877.78
2018-10-06T00:24:36.425Z,100883.19
2018-10-06T00:25:14.422Z,100882.64
2018-10-06T00:25:52.242Z,100878.05
2018-10-06T00:26:30.209Z,100884.52
2018-10-06T00:27:22.156Z,100882.08
2018-10-06T00:28:00.136Z,100880.47
2018-10-06T00:28:38.037Z,100880.16
2018-10-06T00:29:15.827Z,100879.60
2018-10-06T00:29:53.709Z,100884.19
2018-10-06T00:30:31.572Z,100882.03
2018-10-06T00:31:09.396Z,100878.52
2018-10-06T00:31:47.284Z,100881.73
2018-10-06T00:32:25.204Z,100883.34
2018-10-06T00:33:03.109Z,100887.39
2018-10-06T00:33:40.935Z,100883.61
2018-10-06T00:34:18.846Z,100882.84
2018-10-06T00:34:56.595Z,100890.36
2018-10-06T00:35:34.517Z,100887.95
2018-10-06T00:36:12.350Z,100885.80
2018-10-06T00:36:50.237Z,100894.42
2018-10-06T00:37:28.952Z,100896.31
2018-10-06T00:38:06.756Z,100887.95
2018-10-06T00:38:44.548Z,100890.36
2018-10-06T00:39:22.376Z,100894.13
2018-10-06T00:40:00.141Z,100890.60
2018-10-06T00:40:38.112Z,100888.97
2018-10-06T00:41:16.001Z,100887.91
2018-10-06T00:41:54.176Z,100884.67
2018-10-06T00:42:32.069Z,100886.82
2018-10-06T00:43:09.886Z,100886.82
2018-10-06T00:43:47.752Z,100884.13
2018-10-06T00:44:26.453Z,100886.28
2018-10-06T00:45:04.267Z,100884.91
2018-10-06T00:45:42.452Z,100886.52
2018-10-06T00:46:20.303Z,100884.92
2018-10-06T00:46:58.732Z,100884.90
2018-10-06T00:47:36.532Z,100889.19
2018-10-06T00:48:14.313Z,100883.22
2018-10-06T00:48:52.127Z,100881.59
2018-10-06T00:49:30.187Z,100879.16
2018-10-06T00:50:08.170Z,100889.11
2018-10-06T00:50:46.242Z,100884.25
2018-10-06T00:51:24.191Z,100883.42
2018-10-06T00:52:02.246Z,100885.03
2018-10-06T00:52:40.094Z,100882.59
2018-10-06T00:53:17.938Z,100884.20
2018-10-06T00:53:55.834Z,100893.10
2018-10-06T00:54:33.735Z,100892.02
2018-10-06T00:55:11.592Z,100888.75
2018-10-06T00:55:49.556Z,100897.36
2018-10-06T00:56:27.555Z,100898.69
2018-10-06T00:57:05.544Z,100898.43
2018-10-06T00:57:43.429Z,100893.56
2018-10-06T00:58:21.209Z,100894.08
2018-10-06T00:58:59.078Z,100901.08
2018-10-06T00:59:37.105Z,100900.25
2018-10-06T01:00:16.038Z,100899.42
2018-10-06T01:00:54.889Z,100904.28
2018-10-06T01:01:32.787Z,100906.95
2018-10-06T01:02:10.625Z,100912.61
2018-10-06T01:02:48.598Z,100902.67
2018-10-06T01:03:26.454Z,100905.31
2018-10-06T01:04:04.323Z,100911.49
2018-10-06T01:04:42.207Z,100908.22
2018-10-06T01:05:20.044Z,100916.58
2018-10-06T01:05:58.029Z,100915.20
2018-10-06T01:06:35.907Z,100912.22
2018-10-06T01:07:13.910Z,100911.13
2018-10-06T01:07:51.861Z,100912.16
2018-10-06T01:08:29.785Z,100915.67
2018-10-06T01:09:08.949Z,100907.57
2018-10-06T01:09:46.913Z,100916.45
2018-10-06T01:10:24.795Z,100914.27
2018-10-06T01:11:02.643Z,100920.18
2018-10-06T01:11:40.595Z,100919.34
2018-10-06T01:12:18.444Z,100915.81
2018-10-06T01:12:57.575Z,100925.23
2018-10-06T01:13:35.449Z,100918.52
2018-10-06T01:14:13.334Z,100927.91
2018-10-06T01:14:51.296Z,100925.47
2018-10-06T01:15:29.296Z,100924.92
2018-10-06T01:16:07.191Z,100929.23
2018-10-06T01:16:46.021Z,100932.73
2018-10-06T01:17:24.006Z,100932.16
2018-10-06T01:18:01.838Z,100931.13
2018-10-06T01:18:39.698Z,100934.55
2018-10-06T01:19:17.495Z,100938.28
2018-10-06T01:19:55.416Z,100945.26
2018-10-06T01:20:34.267Z,100936.32
2018-10-06T01:21:12.412Z,100940.62
2018-10-06T01:21:50.333Z,100939.83
2018-10-06T01:22:29.155Z,100934.42
2018-10-06T01:23:06.985Z,100939.77
2018-10-06T01:23:44.817Z,100942.72
2018-10-06T01:24:22.673Z,100942.17
2018-10-06T01:25:00.660Z,100937.83
2018-10-06T01:25:38.705Z,100930.59
2018-10-06T01:26:17.367Z,100933.20
2018-10-06T01:26:55.253Z,100935.61
2018-10-06T01:27:33.233Z,100935.87
2018-10-06T01:28:11.133Z,100932.59
2018-10-06T01:28:49.054Z,100935.80
2018-10-06T01:29:27.276Z,100938.76
2018-10-06T01:30:05.293Z,100935.51
2018-10-06T01:30:43.455Z,100940.08
2018-10-06T01:31:21.693Z,100936.80
2018-10-06T01:31:59.545Z,100938.40
2018-10-06T01:32:37.619Z,100939.97
2018-10-06T01:33:15.535Z,100939.94
2018-10-06T01:33:53.444Z,100942.09
2018-10-06T01:34:31.388Z,100935.33
2018-10-06T01:35:09.357Z,100940.73
2018-10-06T01:35:47.292Z,100936.69
2018-10-06T01:36:25.213Z,100938.80
2018-10-06T01:37:03.435Z,100936.91
2018-10-06T01:37:41.211Z,100939.31
2018-10-06T01:38:19.134Z,100935.55
2018-10-06T01:38:57.105Z,100929.34
2018-10-06T01:39:35.005Z,100937.97
2018-10-06T01:40:12.904Z,100942.56
2018-10-06T01:40:50.828Z,100940.95
2018-10-06T01:41:28.653Z,100935.55
2018-10-06T01:42:06.482Z,100941.77
2018-10-06T01:42:44.383Z,100940.95
2018-10-06T01:43:22.263Z,100935.27
2018-10-06T01:44:00.244Z,100937.12
2018-10-06T01:44:38.199Z,100939.27
2018-10-06T01:45:16.330Z,100940.08
2018-10-06T01:45:54.149Z,100941.14
2018-10-06T01:46:32.163Z,100941.98
2018-10-06T01:47:10.949Z,100939.78
2018-10-06T01:47:48.801Z,100942.45
2018-10-06T01:48:26.694Z,100936.50
2018-10-06T01:49:04.482Z,100938.07
2018-10-06T01:49:42.736Z,100943.95
2018-10-06T01:50:20.819Z,100935.80
2018-10-06T01:50:58.801Z,100939.52
2018-10-06T01:51:36.737Z,100942.40
2018-10-06T01:52:14.686Z,100937.16
2018-10-06T01:52:52.633Z,100933.36
2018-10-06T01:53:30.690Z,100935.68
2018-10-06T01:54:08.504Z,100943.48
2018-10-06T01:54:46.287Z,100942.77
2018-10-06T01:55:24.888Z,100942.92
2018-10-06T01:56:02.859Z,100942.50
2018-10-06T01:56:40.804Z,100943.95
2018-10-06T01:57:18.759Z,100946.87
2018-10-06T01:57:56.639Z,100947.83
2018-10-06T01:58:34.434Z,100950.22
2018-10-06T01:59:12.343Z,100950.98
2018-10-06T01:59:50.216Z,100952.58
2018-10-06T02:00:28.851Z,100949.63
2018-10-06T02:01:06.676Z,100953.73
2018-10-06T02:01:44.617Z,100951.09
2018-10-06T02:02:22.525Z,100954.05
2018-10-06T02:03:00.422Z,100951.89
2018-10-06T02:03:44.372Z,100954.09
2018-10-06T02:04:25.972Z,100951.13
2018-10-06T02:05:03.884Z,100951.98
2018-10-06T02:05:41.769Z,100954.69
2018-10-06T02:06:19.648Z,100953.44
2018-10-06T02:06:58.587Z,100952.69
2018-10-06T02:07:36.468Z,100951.72
2018-10-06T02:08:14.448Z,100948.45
2018-10-06T02:08:52.470Z,100946.30
2018-10-06T02:09:34.621Z,100947.16
2018-10-06T02:10:12.492Z,100943.89
2018-10-06T02:10:50.386Z,100951.21
2018-10-06T02:11:28.280Z,100945.80
2018-10-06T02:12:06.112Z,100947.41
2018-10-06T02:12:44.348Z,100943.09
2018-10-06T02:13:22.439Z,100944.70
2018-10-06T02:14:00.270Z,100946.60
2018-10-06T02:14:38.402Z,100947.41
2018-10-06T02:15:16.509Z,100947.41
2018-10-06T02:15:54.325Z,100947.66
2018-10-06T02:16:32.252Z,100949.27
2018-10-06T02:17:11.196Z,100951.38
2018-10-06T02:17:49.064Z,100953.48
2018-10-06T02:18:27.296Z,100948.03
2018-10-06T02:19:05.238Z,100954.78
2018-10-06T02:19:43.061Z,100942.34
2018-10-06T02:20:20.895Z,100949.19
2018-10-06T02:20:58.786Z,100953.18
2018-10-06T02:21:36.576Z,100958.53
2018-10-06T02:22:14.522Z,100949.46
2018-10-06T02:22:52.382Z,100945.20
2018-10-06T02:23:30.352Z,100953.96
2018-10-06T02:24:08.169Z,100946.08
2018-10-06T02:24:46.086Z,100950.55
2018-10-06T02:25:24.193Z,100951.55
2018-10-06T02:26:02.267Z,100946.42
2018-10-06T02:26:40.170Z,100945.92
2018-10-06T02:27:18.086Z,100951.05
2018-10-06T02:27:55.915Z,100959.17
2018-10-06T02:28:33.814Z,100954.06
2018-10-06T02:29:11.673Z,100956.77
2018-10-06T02:29:49.592Z,100954.56
2018-10-06T02:30:27.486Z,100955.66
2018-10-06T02:31:05.339Z,100956.77
2018-10-06T02:31:43.265Z,100951.09
2018-10-06T02:32:21.193Z,100955.41
2018-10-06T02:32:59.069Z,100949.14
2018-10-06T02:33:36.950Z,100954.61
2018-10-06T02:34:16.550Z,100949.50
2018-10-06T02:34:54.525Z,100951.95
2018-10-06T02:35:32.728Z,100949.55
2018-10-06T02:36:10.670Z,100952.26
2018-10-06T02:36:54.541Z,100948.71
2018-10-06T02:37:32.429Z,100950.06
2018-10-06T02:38:10.315Z,100953.06
2018-10-06T02:38:48.125Z,100951.16
2018-10-06T02:39:25.975Z,100951.20
2018-10-06T02:40:03.897Z,100955.23
2018-10-06T02:40:41.707Z,100955.48
2018-10-06T02:41:19.667Z,100955.47
2018-10-06T02:41:57.621Z,100955.97
2018-10-06T02:42:36.338Z,100959.73
2018-10-06T02:43:14.181Z,100961.58
2018-10-06T02:43:51.949Z,100961.58
2018-10-06T02:44:29.719Z,100957.27
2018-10-06T02:45:07.645Z,100956.41
2018-10-06T02:45:45.556Z,100960.38
2018-10-06T02:46:23.461Z,100955.37
2018-10-06T02:47:01.385Z,100956.56
2018-10-06T02:47:39.377Z,100951.77
2018-10-06T02:48:17.205Z,100948.92
2018-10-06T02:48:55.017Z,100950.81
2018-10-06T02:49:32.925Z,100953.32
2018-10-06T02:50:10.815Z,100951.53
2018-10-06T02:50:48.713Z,100950.98
2018-10-06T02:51:26.670Z,100957.67
2018-10-06T02:52:04.586Z,100953.23
2018-10-06T02:52:44.120Z,100953.23
2018-10-06T02:53:21.950Z,100956.68
2018-10-06T02:55:08.276Z,100954.80
2018-10-06T02:55:46.074Z,100951.05
2018-10-06T02:56:23.875Z,100949.75
2018-10-06T02:57:01.713Z,100952.59
2018-10-06T02:57:39.700Z,100952.39
2018-10-06T02:58:17.651Z,100945.94
2018-10-06T02:58:55.533Z,100946.25
2018-10-06T02:59:33.635Z,100945.52
2018-10-06T03:00:11.484Z,100952.36
2018-10-06T03:00:49.225Z,100952.12
2018-10-06T03:01:27.068Z,100949.71
2018-10-06T03:02:04.875Z,100950.70
2018-10-06T03:02:42.670Z,100944.09
2018-10-06T03:03:20.625Z,100944.77
2018-10-06T03:03:58.548Z,100949.81
2018-10-06T03:04:36.692Z,100943.39
2018-10-06T03:05:14.857Z,100946.95
2018-10-06T03:05:53.958Z,100943.68
2018-10-06T03:06:31.916Z,100939.89
2018-10-06T03:07:10.062Z,100942.63
2018-10-06T03:07:48.044Z,100945.30
2018-10-06T03:08:26.335Z,100937.52
2018-10-06T03:09:04.771Z,100941.86
2018-10-06T03:09:42.715Z,100940.59
2018-10-06T03:10:20.715Z,100940.96
2018-10-06T03:10:59.926Z,100942.13
2018-10-06T03:11:38.073Z,100942.45
2018-10-06T03:12:17.348Z,100942.81
2018-10-06T03:12:55.444Z,100944.73
2018-10-06T03:13:33.309Z,100943.45
2018-10-06T03:14:11.213Z,100940.29
2018-10-06T03:14:49.100Z,100943.65
2018-10-06T03:15:27.020Z,100935.88
2018-10-06T03:16:04.923Z,100939.27
2018-10-06T03:16:42.861Z,100934.79
2018-10-06T03:17:20.879Z,100934.66
2018-10-06T03:17:58.747Z,100936.33
2018-10-06T03:18:36.640Z,100937.05
2018-10-06T03:19:14.386Z,100931.84
2018-10-06T03:19:52.379Z,100936.80
2018-10-06T03:20:31.491Z,100936.48
2018-10-06T03:21:10.125Z,100934.47
2018-10-06T03:21:49.438Z,100927.82
2018-10-06T03:22:27.354Z,100932.65
2018-10-06T03:23:06.178Z,100935.61
2018-10-06T03:23:44.027Z,100930.88
2018-10-06T03:24:22.023Z,100933.43
2018-10-06T03:24:59.999Z,100929.28
2018-10-06T03:25:37.829Z,100928.56
2018-10-06T03:26:16.688Z,100928.72
2018-10-06T03:26:54.593Z,100926.64
2018-10-06T03:27:32.414Z,100923.98
2018-10-06T03:28:10.659Z,100924.16
2018-10-06T03:28:48.593Z,100927.98
2018-10-06T03:29:26.477Z,100926.20
2018-10-06T03:30:04.416Z,100923.45
2018-10-06T03:30:42.472Z,100925.45
2018-10-06T03:31:20.452Z,100923.77
2018-10-06T03:31:58.240Z,100921.50
2018-10-06T03:32:36.305Z,100925.66
2018-10-06T03:33:14.097Z,100925.53
2018-10-06T03:33:52.737Z,100924.57
2018-10-06T03:34:30.646Z,100921.77
2018-10-06T03:35:08.920Z,100919.09
2018-10-06T03:35:49.056Z,100922.48
2018-10-06T03:36:28.133Z,100915.13
2018-10-06T03:37:05.919Z,100913.73
2018-10-06T03:37:43.706Z,100918.44
2018-10-06T03:38:21.556Z,100912.91
2018-10-06T03:38:59.452Z,100918.20
2018-10-06T03:39:37.350Z,100911.61
2018-10-06T03:40:15.134Z,100912.61
2018-10-06T03:40:53.011Z,100906.45
2018-10-06T03:41:30.841Z,100911.48
2018-10-06T03:42:08.664Z,100907.48
2018-10-06T03:42:46.505Z,100907.87
2018-10-06T03:43:24.362Z,100910.94
2018-10-06T03:44:02.317Z,100912.06
2018-10-06T03:44:40.232Z,100905.22
2018-10-06T03:45:18.224Z,100904.42
2018-10-06T03:45:56.267Z,100903.56
2018-10-06T03:46:34.129Z,100904.52
2018-10-06T03:47:12.008Z,100902.64
2018-10-06T03:47:49.844Z,100895.84
2018-10-06T03:48:27.665Z,100902.30
2018-10-06T03:49:05.624Z,100905.17
2018-10-06T03:49:43.423Z,100901.34
2018-10-06T03:50:21.343Z,100899.16
2018-10-06T03:50:59.111Z,100895.13
2018-10-06T03:51:36.984Z,100894.60
2018-10-06T03:52:14.901Z,100898.51
2018-10-06T03:52:52.688Z,100894.48
2018-10-06T03:53:30.600Z,100890.95
2018-10-06T03:54:08.913Z,100892.05
2018-10-06T03:54:46.912Z,100887.57
2018-10-06T03:55:25.782Z,100887.95
2018-10-06T03:56:03.773Z,100891.23
2018-10-06T03:56:42.242Z,100885.37
2018-10-06T03:57:20.230Z,100886.55
2018-10-06T03:57:58.016Z,100886.12
2018-10-06T03:58:35.957Z,100881.70
2018-10-06T03:59:14.367Z,100881.64
2018-10-06T03:59:52.230Z,100879.45
2018-10-06T04:00:30.305Z,100877.91
2018-10-06T04:01:08.102Z,100874.28
2018-10-06T04:01:45.897Z,100877.48
2018-10-06T04:02:23.765Z,100873.02
2018-10-06T04:03:01.578Z,100870.11
2018-10-06T04:03:39.483Z,100876.30
2018-10-06T04:04:17.434Z,100875.55
2018-10-06T04:04:55.251Z,100867.77
2018-10-06T04:05:33.094Z,100868.66
2018-10-06T04:06:10.875Z,100870.38
2018-10-06T04:06:48.734Z,100873.38
2018-10-06T04:07:27.141Z,100870.86
2018-10-06T04:08:05.400Z,100871.94
2018-10-06T04:08:43.311Z,100867.14
2018-10-06T04:09:22.122Z,100865.98
2018-10-06T04:10:01.028Z,100870.95
2018-10-06T04:10:38.912Z,100868.38
2018-10-06T04:11:16.714Z,100865.27
2018-10-06T04:11:55.633Z,100859.91
2018-10-06T04:12:33.597Z,100859.64
2018-10-06T04:13:11.918Z,100853.66
2018-10-06T04:13:49.736Z,100855.56
2018-10-06T04:14:27.568Z,100860.16
2018-10-06T04:15:05.508Z,100859.12
2018-10-06T04:15:43.439Z,100852.96
2018-10-06T04:16:21.362Z,100852.40
2018-10-06T04:16:59.266Z,100849.08
2018-10-06T04:17:37.316Z,100846.71
2018-10-06T04:18:15.430Z,100851.08
2018-10-06T04:18:53.302Z,100855.03
2018-10-06T04:19:31.217Z,100852.95
2018-10-06T04:20:09.293Z,100847.03
2018-10-06T04:20:47.211Z,100847.23
2018-10-06T04:21:25.184Z,100842.12
2018-10-06T04:22:03.084Z,100844.44
2018-10-06T04:22:40.933Z,100837.25
2018-10-06T04:23:18.954Z,100841.75
2018-10-06T04:23:56.865Z,100835.94
2018-10-06T04:24:34.705Z,100830.42
2018-10-06T04:25:13.353Z,100827.66
2018-10-06T04:25:51.254Z,100829.80
2018-10-06T04:26:29.124Z,100830.41
2018-10-06T04:27:07.198Z,100835.86
2018-10-06T04:27:45.064Z,100837.78
2018-10-06T04:28:22.950Z,100833.97
2018-10-06T04:29:00.922Z,100830.72
2018-10-06T04:29:38.792Z,100837.64
2018-10-06T04:30:16.944Z,100833.59
2018-10-06T04:30:54.856Z,100830.34
2018-10-06T04:31:32.797Z,100831.09
2018-10-06T04:32:10.719Z,100822.55
2018-10-06T04:32:48.635Z,100828.38
2018-10-06T04:33:26.456Z,100827.92
2018-10-06T04:34:04.565Z,100825.61
2018-10-06T04:34:42.372Z,100823.94
2018-10-06T04:35:20.445Z,100822.25
2018-10-06T04:35:58.232Z,100828.12
2018-10-06T04:36:36.195Z,100820.16
2018-10-06T04:37:13.937Z,100818.59
2018-10-06T04:37:51.909Z,100821.13
2018-10-06T04:38:29.667Z,100822.06
2018-10-06T04:39:10.206Z,100809.58
2018-10-06T04:39:48.069Z,100815.67
2018-10-06T04:40:25.909Z,100819.21
2018-10-06T04:41:03.773Z,100815.94
2018-10-06T04:41:41.597Z,100818.13
2018-10-06T04:42:20.411Z,100814.79
2018-10-06T04:42:58.206Z,100817.34
2018-10-06T04:43:36.107Z,100816.21
2018-10-06T04:44:15.123Z,100816.77
2018-10-06T04:44:52.973Z,100817.34
2018-10-06T04:45:30.777Z,100810.53
2018-10-06T04:46:08.644Z,100808.46
2018-10-06T04:46:46.404Z,100807.34
2018-10-06T04:47:24.424Z,100808.28
2018-10-06T04:48:02.893Z,100809.25
2018-10-06T04:48:40.705Z,100809.73
2018-10-06T04:49:18.700Z,100799.45
2018-10-06T04:49:56.679Z,100798.70
2018-10-06T04:50:34.516Z,100797.42
2018-10-06T04:51:12.389Z,100797.69
2018-10-06T04:51:50.282Z,100799.09
2018-10-06T04:52:28.114Z,100801.63
2018-10-06T04:53:06.065Z,100796.89
2018-10-06T04:53:43.921Z,100801.12
2018-10-06T04:54:21.945Z,100799.27
2018-10-06T04:54:59.823Z,100794.52
2018-10-06T04:55:37.692Z,100794.75
2018-10-06T04:56:15.668Z,100799.31
2018-10-06T04:56:53.514Z,100799.08
2018-10-06T04:57:31.477Z,100796.34
2018-10-06T04:58:09.361Z,100792.16
2018-10-06T04:58:47.150Z,100789.25
2018-10-06T04:59:25.228Z,100790.61
2018-10-06T05:00:03.179Z,100786.89
2018-10-06T05:00:41.201Z,100788.09
2018-10-06T05:01:19.473Z,100788.81
2018-10-06T05:01:57.302Z,100781.57
2018-10-06T05:02:35.360Z,100786.92
2018-10-06T05:03:13.304Z,100790.45
2018-10-06T05:03:51.188Z,100784.33
2018-10-06T05:04:29.051Z,100781.40
2018-10-06T05:05:06.951Z,100781.56
2018-10-06T05:05:44.789Z,100778.27
2018-10-06T05:06:23.753Z,100774.08
2018-10-06T05:07:01.679Z,100774.88
2018-10-06T05:07:39.576Z,100775.11
2018-10-06T05:08:17.437Z,100777.60
2018-10-06T05:08:55.377Z,100773.31
2018-10-06T05:09:34.411Z,100780.59
2018-10-06T05:10:12.221Z,100772.17
2018-10-06T05:10:50.260Z,100771.05
2018-10-06T05:11:28.070Z,100771.51
2018-10-06T05:12:05.831Z,100775.37
2018-10-06T05:12:43.684Z,100765.83
2018-10-06T05:13:30.448Z,100767.88
2018-10-06T05:14:08.363Z,100770.38
2018-10-06T05:14:46.289Z,100760.27
2018-10-06T05:15:24.874Z,100767.65
2018-10-06T05:16:02.741Z,100764.92
2018-10-06T05:16:40.580Z,100761.06
2018-10-06T05:17:18.437Z,100761.06
2018-10-06T05:17:56.327Z,100754.02
2018-10-06T05:18:34.332Z,100756.08
2018-10-06T05:19:12.191Z,100760.62
2018-10-06T05:19:50.097Z,100757.00
2018-10-06T05:20:28.428Z,100753.17
2018-10-06T05:21:06.192Z,100764.08
2018-10-06T05:21:44.005Z,100754.58
2018-10-06T05:22:21.830Z,100753.62
2018-10-06T05:22:59.776Z,100750.91
2018-10-06T05:23:37.694Z,100750.72
2018-10-06T05:24:15.597Z,100747.32
2018-10-06T05:24:53.510Z,100745.28
2018-10-06T05:25:32.290Z,100750.00
2018-10-06T05:26:11.971Z,100744.70
2018-10-06T05:26:49.775Z,100745.12
2018-10-06T05:27:27.679Z,100743.39
2018-10-06T05:28:05.538Z,100740.52
2018-10-06T05:28:43.332Z,100746.17
2018-10-06T05:29:21.121Z,100740.69
2018-10-06T05:29:59.041Z,100741.02
2018-10-06T05:30:36.969Z,100732.41
2018-10-06T05:31:14.916Z,100732.83
2018-10-06T05:31:52.801Z,100730.36
2018-10-06T05:32:30.649Z,100735.16
2018-10-06T05:33:08.575Z,100734.31
2018-10-06T05:33:46.624Z,100727.72
2018-10-06T05:34:24.640Z,100724.99
2018-10-06T05:35:02.612Z,100729.47
2018-10-06T05:35:41.367Z,100731.36
2018-10-06T05:36:19.335Z,100728.02
2018-10-06T05:36:57.088Z,100724.56
2018-10-06T05:37:35.007Z,100726.03
2018-10-06T05:38:12.854Z,100725.90
2018-10-06T05:38:50.857Z,100723.88
2018-10-06T05:39:29.171Z,100725.47
2018-10-06T05:40:06.960Z,100719.81
2018-10-06T05:40:44.807Z,100716.47
2018-10-06T05:41:22.616Z,100718.31
2018-10-06T05:42:00.728Z,100719.91
2018-10-06T05:42:38.810Z,100718.11
2018-10-06T05:43:16.628Z,100716.64
2018-10-06T05:43:56.329Z,100714.04
2018-10-06T05:44:34.148Z,100710.64
2018-10-06T05:45:12.112Z,100710.50
2018-10-06T05:45:50.201Z,100709.61
2018-10-06T05:46:28.030Z,100714.64
2018-10-06T05:47:05.893Z,100702.84
2018-10-06T05:47:43.789Z,100703.75
2018-10-06T05:48:21.577Z,100706.83
2018-10-06T05:48:59.433Z,100701.03
2018-10-06T05:49:37.309Z,100709.91
2018-10-06T05:50:15.219Z,100704.36
2018-10-06T05:50:53.184Z,100700.69
2018-10-06T05:51:30.973Z,100696.83
2018-10-06T05:52:08.979Z,100701.26
2018-10-06T05:52:46.903Z,100700.12
2018-10-06T05:53:24.715Z,100698.08
2018-10-06T05:54:03.680Z,100701.48
2018-10-06T05:54:41.493Z,100699.66
2018-10-06T05:55:19.316Z,100688.29
2018-10-06T05:55:57.280Z,100689.66
2018-10-06T05:56:35.511Z,100691.64
2018-10-06T05:57:13.338Z,100685.17
2018-10-06T05:57:51.161Z,100688.91
2018-10-06T05:58:29.821Z,100686.58
2018-10-06T05:59:07.700Z,100694.72
2018-10-06T05:59:45.696Z,100683.44
2018-10-06T06:00:24.654Z,100686.09
2018-10-06T06:01:02.699Z,100693.69
2018-10-06T06:01:40.455Z,100688.95
2018-10-06T06:02:18.539Z,100688.77
2018-10-06T06:02:56.480Z,100690.06
2018-10-06T06:03:34.233Z,100688.60
2018-10-06T06:04:12.078Z,100682.75
2018-10-06T06:04:49.920Z,100679.80
2018-10-06T06:05:29.136Z,100686.52
2018-10-06T06:06:07.180Z,100676.77
2018-10-06T06:06:45.051Z,100675.23
2018-10-06T06:07:23.015Z,100675.34
2018-10-06T06:08:00.928Z,100672.01
2018-10-06T06:08:38.780Z,100678.25
2018-10-06T06:09:16.725Z,100669.50
2018-10-06T06:09:54.621Z,100676.95
2018-10-06T06:10:32.524Z,100677.18
2018-10-06T06:11:10.456Z,100662.55
2018-10-06T06:11:49.263Z,100667.67
2018-10-06T06:12:27.367Z,100662.25
2018-10-06T06:13:05.092Z,100667.44
2018-10-06T06:13:42.959Z,100666.16
2018-10-06T06:14:20.819Z,100669.25
2018-10-06T06:14:58.807Z,100661.16
2018-10-06T06:15:39.802Z,100658.84
2018-10-06T06:16:17.748Z,100663.39
2018-10-06T06:16:55.534Z,100663.36
2018-10-06T06:17:33.368Z,100657.52
2018-10-06T06:18:11.219Z,100659.75
2018-10-06T06:18:49.191Z,100657.61
2018-10-06T06:19:27.061Z,100654.80
2018-10-06T06:20:05.135Z,100653.59
2018-10-06T06:20:42.948Z,100656.14
2018-10-06T06:21:20.748Z,100652.15
2018-10-06T06:21:58.807Z,100652.75
2018-10-06T06:22:36.686Z,100654.98
2018-10-06T06:23:14.616Z,100652.90
2018-10-06T06:23:52.581Z,100652.80
2018-10-06T06:24:30.585Z,100650.16
2018-10-06T06:25:08.679Z,100649.99
2018-10-06T06:25:46.805Z,100642.97
2018-10-06T06:26:24.737Z,100646.55
2018-10-06T06:27:02.640Z,100646.11
2018-10-06T06:27:40.446Z,100650.25
2018-10-06T06:28:18.265Z,100640.03
2018-10-06T06:28:56.323Z,100647.16
2018-10-06T06:29:34.278Z,100644.04
2018-10-06T06:30:12.165Z,100640.59
2018-10-06T06:30:50.136Z,100644.98
2018-10-06T06:31:28.456Z,100642.13
2018-10-06T06:32:07.383Z,100637.58
2018-10-06T06:32:45.439Z,100640.67
2018-10-06T06:33:23.238Z,100636.36
2018-10-06T06:34:01.193Z,100636.91
2018-10-06T06:34:39.171Z,100638.34
2018-10-06T06:35:16.951Z,100636.98
2018-10-06T06:35:54.820Z,100634.27
2018-10-06T06:36:32.664Z,100633.72
2018-10-06T06:37:10.706Z,100636.25
2018-10-06T06:37:48.988Z,100626.28
2018-10-06T06:38:26.920Z,100626.77
2018-10-06T06:39:04.900Z,100625.66
2018-10-06T06:39:42.777Z,100627.01
2018-10-06T06:40:21.563Z,100629.34
2018-10-06T06:40:59.377Z,100628.16
2018-10-06T06:41:37.336Z,100623.22
2018-10-06T06:42:15.224Z,100619.57
2018-10-06T06:42:53.091Z,100624.02
2018-10-06T06:43:31.128Z,100618.77
2018-10-06T06:44:09.306Z,100616.22
2018-10-06T06:44:47.319Z,100614.51
2018-10-06T06:45:25.275Z,100611.97
2018-10-06T06:46:03.913Z,100616.77
2018-10-06T06:46:41.789Z,100615.61
2018-10-06T06:47:19.629Z,100612.50
2018-10-06T06:47:57.457Z,100619.14
2018-10-06T06:48:35.354Z,100615.55
2018-10-06T06:49:13.245Z,100615.16
2018-10-06T06:49:51.087Z,100611.56
2018-10-06T06:50:28.949Z,100614.04
2018-10-06T06:51:07.106Z,100617.00
2018-10-06T06:51:45.365Z,100609.48
2018-10-06T06:52:23.393Z,100607.02
2018-10-06T06:53:01.307Z,100609.09
2018-10-06T06:53:39.292Z,100603.55
2018-10-06T06:54:18.319Z,100606.19
2018-10-06T06:54:56.515Z,100603.16
2018-10-06T06:55:34.411Z,100606.11
2018-10-06T06:56:12.300Z,100607.07
2018-10-06T06:56:50.233Z,100601.12
2018-10-06T06:57:28.094Z,100601.95
2018-10-06T06:58:07.018Z,100604.98
2018-10-06T06:58:45.093Z,100605.30
2018-10-06T06:59:23.017Z,100605.88
2018-10-06T07:00:01.000Z,100599.41
2018-10-06T07:00:38.880Z,100600.69
2018-10-06T07:01:16.708Z,100600.53
2018-10-06T07:01:54.609Z,100598.13
2018-10-06T07:02:33.408Z,100598.45
2018-10-06T07:03:11.643Z,100599.02
2018-10-06T07:03:49.581Z,100598.13
2018-10-06T07:04:27.572Z,100599.97
2018-10-06T07:05:05.534Z,100593.97
2018-10-06T07:05:43.469Z,100594.21
2018-10-06T07:06:22.360Z,100596.05
2018-10-06T07:07:00.353Z,100593.33
2018-10-06T07:07:39.128Z,100584.30
2018-10-06T07:08:17.083Z,100593.77
2018-10-06T07:08:56.256Z,100579.61
2018-10-06T07:09:34.348Z,100579.46
2018-10-06T07:10:12.267Z,100580.97
2018-10-06T07:10:50.170Z,100574.56
2018-10-06T07:11:28.138Z,100580.14
2018-10-06T07:12:06.123Z,100576.63
2018-10-06T07:12:44.257Z,100578.46
2018-10-06T07:13:22.295Z,100574.06
2018-10-06T07:14:00.094Z,100569.89
2018-10-06T07:14:37.912Z,100573.32
2018-10-06T07:15:15.716Z,100573.82
2018-10-06T07:15:54.786Z,100568.68